createdAt,value
2017-04-07T00:00:37.192Z,22.2
2017-04-07T00:01:45.786Z,22.2
2017-04-07T00:02:53.772Z,22.3
2017-04-07T00:04:01.662Z,22.3
2017-04-07T00:05:09.678Z,22.3
2017-04-07T00:06:18.234Z,22.3
2017-04-07T00:07:26.342Z,22.2
2017-04-07T00:08:33.806Z,22.3
2017-04-07T00:09:41.897Z,22.2
2017-04-07T00:10:49.981Z,22.2
2017-04-07T00:11:58.068Z,22.3
2017-04-07T00:13:06.148Z,22.2
2017-04-07T00:14:14.464Z,22.2
2017-04-07T00:15:23.353Z,22.3
2017-04-07T00:16:30.428Z,22.2
2017-04-07T00:17:38.688Z,22.2
2017-04-07T00:18:46.926Z,22.2
2017-04-07T00:19:55.515Z,22.2
2017-04-07T00:21:02.759Z,22.2
2017-04-07T00:22:10.921Z,22.2
2017-04-07T00:23:18.933Z,22.2
2017-04-07T00:24:27.610Z,22.2
2017-04-07T00:25:35.109Z,22.1
2017-04-07T00:26:43.248Z,22.1
2017-04-07T00:27:51.424Z,22.2
2017-04-07T00:28:59.988Z,22.1
2017-04-07T00:30:07.458Z,22.1
2017-04-07T00:31:15.542Z,22.1
2017-04-07T00:32:23.901Z,22.1
2017-04-07T00:33:31.711Z,22.1
2017-04-07T00:34:39.803Z,22.1
2017-04-07T00:35:48.418Z,22.1
2017-04-07T00:36:55.981Z,22.2
2017-04-07T00:38:04.612Z,22.1
2017-04-07T00:39:12.172Z,22.1
2017-04-07T00:40:20.483Z,22.1
2017-04-07T00:41:28.361Z,22.1
2017-04-07T00:42:36.409Z,22.1
2017-04-07T00:43:44.496Z,22.1
2017-04-07T00:44:52.587Z,22.0
2017-04-07T00:46:00.674Z,22.0
2017-04-07T00:47:08.759Z,22.1
2017-04-07T00:48:16.845Z,21.9
2017-04-07T00:49:24.934Z,21.9
2017-04-07T00:50:33.019Z,22.0
2017-04-07T00:51:41.099Z,21.9
2017-04-07T00:52:49.190Z,22.0
2017-04-07T00:53:57.275Z,21.9
2017-04-07T00:55:05.361Z,21.9
2017-04-07T00:56:13.447Z,21.9
2017-04-07T00:57:21.537Z,21.9
2017-04-07T00:58:29.624Z,21.9
2017-04-07T00:59:37.706Z,21.9
2017-04-07T01:00:45.798Z,21.9
2017-04-07T01:01:53.887Z,21.9
2017-04-07T01:03:01.969Z,21.9
2017-04-07T01:04:10.058Z,21.9
2017-04-07T01:05:18.146Z,21.9
2017-04-07T01:06:26.234Z,21.8
2017-04-07T01:07:34.319Z,21.8
2017-04-07T01:08:42.406Z,21.7
2017-04-07T01:09:50.491Z,21.8
2017-04-07T01:10:58.575Z,21.8
2017-04-07T01:12:06.661Z,21.7
2017-04-07T01:13:14.748Z,21.8
2017-04-07T01:14:22.832Z,21.7
2017-04-07T01:15:30.927Z,21.7
2017-04-07T01:16:39.011Z,21.7
2017-04-07T01:17:47.095Z,21.7
2017-04-07T01:18:55.248Z,21.7
2017-04-07T01:20:03.268Z,21.6
2017-04-07T01:21:11.354Z,21.6
2017-04-07T01:22:19.440Z,21.7
2017-04-07T01:23:27.525Z,21.6
2017-04-07T01:24:35.621Z,21.6
2017-04-07T01:25:43.705Z,21.7
2017-04-07T01:26:51.789Z,21.6
2017-04-07T01:27:59.880Z,21.6
2017-04-07T01:29:07.970Z,21.7
2017-04-07T01:30:16.055Z,21.6
2017-04-07T01:31:24.139Z,21.6
2017-04-07T01:32:32.230Z,21.6
2017-04-07T01:33:40.320Z,21.6
2017-04-07T01:34:48.397Z,21.6
2017-04-07T01:35:56.510Z,21.6
2017-04-07T01:37:04.577Z,21.7
2017-04-07T01:38:12.659Z,21.6
2017-04-07T01:39:20.743Z,21.6
2017-04-07T01:40:28.835Z,21.6
2017-04-07T01:41:36.927Z,21.6
2017-04-07T01:42:45.007Z,21.6
2017-04-07T01:43:53.094Z,21.5
2017-04-07T01:45:01.180Z,21.6
2017-04-07T01:46:09.266Z,21.5
2017-04-07T01:47:17.347Z,21.6
2017-04-07T01:48:25.434Z,21.6
2017-04-07T01:49:33.524Z,21.5
2017-04-07T01:50:41.610Z,21.5
2017-04-07T01:51:49.703Z,21.5
2017-04-07T01:52:57.789Z,21.5
2017-04-07T01:54:05.874Z,21.4
2017-04-07T01:55:13.956Z,21.5
2017-04-07T01:56:22.047Z,21.4
2017-04-07T01:57:30.144Z,21.4
2017-04-07T01:58:38.222Z,21.4
2017-04-07T01:59:46.314Z,21.3
2017-04-07T02:00:54.404Z,21.3
2017-04-07T02:02:02.484Z,21.4
2017-04-07T02:03:10.569Z,21.3
2017-04-07T02:04:18.658Z,21.3
2017-04-07T02:05:26.743Z,21.3
2017-04-07T02:06:34.828Z,21.3
2017-04-07T02:07:42.914Z,21.3
2017-04-07T02:08:51.001Z,21.3
2017-04-07T02:09:59.089Z,21.3
2017-04-07T02:11:07.172Z,21.3
2017-04-07T02:12:15.260Z,21.3
2017-04-07T02:13:23.345Z,21.2
2017-04-07T02:14:31.429Z,21.2
2017-04-07T02:15:39.521Z,21.2
2017-04-07T02:16:47.605Z,21.2
2017-04-07T02:17:55.687Z,21.1
2017-04-07T02:19:03.769Z,21.1
2017-04-07T02:20:11.863Z,21.1
2017-04-07T02:21:19.957Z,21.2
2017-04-07T02:22:28.036Z,21.2
2017-04-07T02:23:36.128Z,21.1
2017-04-07T02:24:44.213Z,21.1
2017-04-07T02:25:52.316Z,21.0
2017-04-07T02:27:00.390Z,21.1
2017-04-07T02:28:08.478Z,21.1
2017-04-07T02:29:16.564Z,21.1
2017-04-07T02:30:24.648Z,21.0
2017-04-07T02:31:32.734Z,21.0
2017-04-07T02:32:40.822Z,21.0
2017-04-07T02:33:48.908Z,21.0
2017-04-07T02:34:56.988Z,21.1
2017-04-07T02:36:05.077Z,21.0
2017-04-07T02:37:13.163Z,20.9
2017-04-07T02:38:21.249Z,20.9
2017-04-07T02:39:29.336Z,21.0
2017-04-07T02:40:37.424Z,20.9
2017-04-07T02:41:45.504Z,20.9
2017-04-07T02:42:53.596Z,21.0
2017-04-07T02:44:01.682Z,20.9
2017-04-07T02:45:09.769Z,20.9
2017-04-07T02:46:17.847Z,20.9
2017-04-07T02:47:25.936Z,20.9
2017-04-07T02:48:34.021Z,20.8
2017-04-07T02:49:42.110Z,20.8
2017-04-07T02:50:50.202Z,20.9
2017-04-07T02:51:58.286Z,20.8
2017-04-07T02:53:06.371Z,20.8
2017-04-07T02:54:14.452Z,20.8
2017-04-07T02:55:22.544Z,20.8
2017-04-07T02:56:30.627Z,20.8
2017-04-07T02:57:38.718Z,20.8
2017-04-07T02:58:46.804Z,20.7
2017-04-07T02:59:54.892Z,20.7
2017-04-07T03:01:02.975Z,20.7
2017-04-07T03:02:11.064Z,20.7
2017-04-07T03:03:19.150Z,20.7
2017-04-07T03:04:27.233Z,20.7
2017-04-07T03:05:35.316Z,20.7
2017-04-07T03:06:43.399Z,20.7
2017-04-07T03:07:51.485Z,20.7
2017-04-07T03:08:59.572Z,20.7
2017-04-07T03:10:07.654Z,20.6
2017-04-07T03:11:15.742Z,20.6
2017-04-07T03:12:23.827Z,20.6
2017-04-07T03:13:31.910Z,20.6
2017-04-07T03:14:39.999Z,20.6
2017-04-07T03:15:48.084Z,20.5
2017-04-07T03:16:56.165Z,20.5
2017-04-07T03:18:04.250Z,20.6
2017-04-07T03:19:12.340Z,20.5
2017-04-07T03:20:20.421Z,20.5
2017-04-07T03:21:28.506Z,20.5
2017-04-07T03:22:36.593Z,20.5
2017-04-07T03:23:44.677Z,20.5
2017-04-07T03:24:52.756Z,20.5
2017-04-07T03:26:00.850Z,20.5
2017-04-07T03:27:08.937Z,20.4
2017-04-07T03:28:17.020Z,20.4
2017-04-07T03:29:25.099Z,20.5
2017-04-07T03:30:33.189Z,20.5
2017-04-07T03:31:41.273Z,20.4
2017-04-07T03:32:49.359Z,20.4
2017-04-07T03:33:57.448Z,20.3
2017-04-07T03:35:05.534Z,20.4
2017-04-07T03:36:13.618Z,20.3
2017-04-07T03:37:21.700Z,20.3
2017-04-07T03:38:29.787Z,20.4
2017-04-07T03:39:37.877Z,20.4
2017-04-07T03:40:45.952Z,20.3
2017-04-07T03:41:54.040Z,20.2
2017-04-07T03:43:02.125Z,20.3
2017-04-07T03:44:10.209Z,20.2
2017-04-07T03:45:18.290Z,20.2
2017-04-07T03:46:26.383Z,20.2
2017-04-07T03:47:34.467Z,20.1
2017-04-07T03:48:42.549Z,20.2
2017-04-07T03:49:50.638Z,20.1
2017-04-07T03:50:58.729Z,20.2
2017-04-07T03:52:06.863Z,20.1
2017-04-07T03:53:14.889Z,20.2
2017-04-07T03:54:22.976Z,20.1
2017-04-07T03:55:31.065Z,20.1
2017-04-07T03:56:39.144Z,20.1
2017-04-07T03:57:47.233Z,20.1
2017-04-07T03:58:55.321Z,20.1
2017-04-07T04:00:03.408Z,20.1
2017-04-07T04:01:11.486Z,20.1
2017-04-07T04:02:19.573Z,20.0
2017-04-07T04:03:27.660Z,20.0
2017-04-07T04:04:35.737Z,20.0
2017-04-07T04:05:43.829Z,20.0
2017-04-07T04:06:51.920Z,20.0
2017-04-07T04:08:00.006Z,20.0
2017-04-07T04:09:08.086Z,19.9
2017-04-07T04:10:16.176Z,20.0
2017-04-07T04:11:24.258Z,19.9
2017-04-07T04:12:32.338Z,19.9
2017-04-07T04:13:40.426Z,19.9
2017-04-07T04:14:48.511Z,19.9
2017-04-07T04:15:56.599Z,19.9
2017-04-07T04:17:04.681Z,19.9
2017-04-07T04:18:12.771Z,19.9
2017-04-07T04:19:20.854Z,19.9
2017-04-07T04:20:28.937Z,19.8
2017-04-07T04:21:37.022Z,19.7
2017-04-07T04:22:45.107Z,19.8
2017-04-07T04:23:53.187Z,19.8
2017-04-07T04:25:01.361Z,19.8
2017-04-07T04:26:09.355Z,19.7
2017-04-07T04:27:17.440Z,19.8
2017-04-07T04:28:25.525Z,19.7
2017-04-07T04:29:33.612Z,19.7
2017-04-07T04:30:41.698Z,19.7
2017-04-07T04:31:49.783Z,19.7
2017-04-07T04:32:57.865Z,19.7
2017-04-07T04:34:05.951Z,19.6
2017-04-07T04:35:14.037Z,19.7
2017-04-07T04:36:22.117Z,19.6
2017-04-07T04:37:30.209Z,19.6
2017-04-07T04:38:38.378Z,19.7
2017-04-07T04:39:46.368Z,19.6
2017-04-07T04:40:54.457Z,19.6
2017-04-07T04:42:02.548Z,19.5
2017-04-07T04:43:10.634Z,19.6
2017-04-07T04:44:18.714Z,19.6
2017-04-07T04:45:26.807Z,19.6
2017-04-07T04:46:34.888Z,19.5
2017-04-07T04:47:42.966Z,19.6
2017-04-07T04:48:51.055Z,19.6
2017-04-07T04:49:59.138Z,19.5
2017-04-07T04:51:07.219Z,19.6
2017-04-07T04:52:15.302Z,19.6
2017-04-07T04:53:23.391Z,19.4
2017-04-07T04:54:31.475Z,19.4
2017-04-07T04:55:39.660Z,19.5
2017-04-07T04:56:48.236Z,19.4
2017-04-07T04:57:55.732Z,19.4
2017-04-07T04:59:03.813Z,19.5
2017-04-07T05:00:11.930Z,19.4
2017-04-07T05:01:19.984Z,19.4
2017-04-07T05:02:28.065Z,19.4
2017-04-07T05:03:36.149Z,19.4
2017-04-07T05:04:44.235Z,19.4
2017-04-07T05:05:52.322Z,19.5
2017-04-07T05:07:00.407Z,19.4
2017-04-07T05:08:08.487Z,19.4
2017-04-07T05:09:16.575Z,19.4
2017-04-07T05:10:24.666Z,19.4
2017-04-07T05:11:32.742Z,19.4
2017-04-07T05:12:40.918Z,19.4
2017-04-07T05:13:48.916Z,19.4
2017-04-07T05:14:57.066Z,19.3
2017-04-07T05:16:05.086Z,19.3
2017-04-07T05:17:13.182Z,19.3
2017-04-07T05:18:21.265Z,19.2
2017-04-07T05:19:29.346Z,19.3
2017-04-07T05:20:37.441Z,19.2
2017-04-07T05:21:45.515Z,19.2
2017-04-07T05:22:53.605Z,19.2
2017-04-07T05:24:01.687Z,19.3
2017-04-07T05:25:09.768Z,19.2
2017-04-07T05:26:17.849Z,19.2
2017-04-07T05:27:25.936Z,19.1
2017-04-07T05:28:34.027Z,19.1
2017-04-07T05:29:42.114Z,19.1
2017-04-07T05:30:50.329Z,19.2
2017-04-07T05:31:58.272Z,19.2
2017-04-07T05:33:06.365Z,19.1
2017-04-07T05:34:14.453Z,19.1
2017-04-07T05:35:22.538Z,19.1
2017-04-07T05:36:30.622Z,19.1
2017-04-07T05:37:38.709Z,19.1
2017-04-07T05:38:46.789Z,19.1
2017-04-07T05:39:54.882Z,19.1
2017-04-07T05:41:02.960Z,19.0
2017-04-07T05:42:11.045Z,19.1
2017-04-07T05:43:19.125Z,19.0
2017-04-07T05:44:27.216Z,19.1
2017-04-07T05:45:35.301Z,19.1
2017-04-07T05:46:43.386Z,19.0
2017-04-07T05:47:51.470Z,19.0
2017-04-07T05:48:59.554Z,19.0
2017-04-07T05:50:07.693Z,19.0
2017-04-07T05:51:15.724Z,19.0
2017-04-07T05:52:23.812Z,18.9
2017-04-07T05:53:31.898Z,19.0
2017-04-07T05:54:39.979Z,18.9
2017-04-07T05:55:48.065Z,18.9
2017-04-07T05:56:56.151Z,18.9
2017-04-07T05:58:04.232Z,18.9
2017-04-07T05:59:12.315Z,18.9
2017-04-07T06:00:20.405Z,18.9
2017-04-07T06:01:28.487Z,18.9
2017-04-07T06:02:36.567Z,18.9
2017-04-07T06:03:44.661Z,18.9
2017-04-07T06:04:52.741Z,18.8
2017-04-07T06:06:00.825Z,18.8
2017-04-07T06:07:08.907Z,18.9
2017-04-07T06:08:16.994Z,18.8
2017-04-07T06:09:25.099Z,18.8
2017-04-07T06:10:33.159Z,18.9
2017-04-07T06:11:41.246Z,18.8
2017-04-07T06:12:49.329Z,18.8
2017-04-07T06:13:57.866Z,18.8
2017-04-07T06:15:05.495Z,18.9
2017-04-07T06:16:13.580Z,18.8
2017-04-07T06:17:22.036Z,18.8
2017-04-07T06:18:29.948Z,18.8
2017-04-07T06:19:38.152Z,18.8
2017-04-07T06:20:45.918Z,18.8
2017-04-07T06:21:54.004Z,18.8
2017-04-07T06:23:02.092Z,18.9
2017-04-07T06:24:10.176Z,18.7
2017-04-07T06:25:18.257Z,18.7
2017-04-07T06:26:26.341Z,18.8
2017-04-07T06:27:34.430Z,18.8
2017-04-07T06:28:42.518Z,18.8
2017-04-07T06:29:50.599Z,18.8
2017-04-07T06:30:58.687Z,18.8
2017-04-07T06:32:06.769Z,18.7
2017-04-07T06:33:14.850Z,18.8
2017-04-07T06:34:22.929Z,18.8
2017-04-07T06:35:31.017Z,18.8
2017-04-07T06:36:39.100Z,18.7
2017-04-07T06:37:47.720Z,18.7
2017-04-07T06:38:55.266Z,18.7
2017-04-07T06:40:03.766Z,18.7
2017-04-07T06:41:11.622Z,18.7
2017-04-07T06:42:19.604Z,18.7
2017-04-07T06:43:27.600Z,18.7
2017-04-07T06:44:35.685Z,18.7
2017-04-07T06:45:43.769Z,18.7
2017-04-07T06:46:51.853Z,18.7
2017-04-07T06:47:59.934Z,18.7
2017-04-07T06:49:08.019Z,18.7
2017-04-07T06:50:16.614Z,18.7
2017-04-07T06:51:24.187Z,18.7
2017-04-07T06:52:32.712Z,18.7
2017-04-07T06:53:40.851Z,18.7
2017-04-07T06:54:48.439Z,18.7
2017-04-07T06:55:57.072Z,18.7
2017-04-07T06:57:04.608Z,18.7
2017-04-07T06:58:12.691Z,18.6
2017-04-07T06:59:20.777Z,18.6
2017-04-07T07:00:28.861Z,18.7
2017-04-07T07:01:36.941Z,18.7
2017-04-07T07:02:45.029Z,18.7
2017-04-07T07:03:53.116Z,18.6
2017-04-07T07:05:01.199Z,18.6
2017-04-07T07:06:09.647Z,18.6
2017-04-07T07:07:17.373Z,18.6
2017-04-07T07:08:25.454Z,18.6
2017-04-07T07:09:33.541Z,18.7
2017-04-07T07:10:41.623Z,18.6
2017-04-07T07:11:49.713Z,18.6
2017-04-07T07:12:58.433Z,18.6
2017-04-07T07:14:05.886Z,18.6
2017-04-07T07:15:13.976Z,18.6
2017-04-07T07:16:22.060Z,18.6
2017-04-07T07:17:30.142Z,18.6
2017-04-07T07:18:38.226Z,18.6
2017-04-07T07:19:46.310Z,18.6
2017-04-07T07:20:54.404Z,18.5
2017-04-07T07:22:02.485Z,18.6
2017-04-07T07:23:10.559Z,18.6
2017-04-07T07:24:18.645Z,18.6
2017-04-07T07:25:26.725Z,18.6
2017-04-07T07:26:34.817Z,18.6
2017-04-07T07:27:42.899Z,18.5
2017-04-07T07:28:50.978Z,18.5
2017-04-07T07:29:59.074Z,18.6
2017-04-07T07:31:07.161Z,18.6
2017-04-07T07:32:15.246Z,18.6
2017-04-07T07:33:23.327Z,18.5
2017-04-07T07:34:31.413Z,18.6
2017-04-07T07:35:39.503Z,18.6
2017-04-07T07:36:47.576Z,18.6
2017-04-07T07:37:55.666Z,18.6
2017-04-07T07:39:03.748Z,18.6
2017-04-07T07:40:11.830Z,18.6
2017-04-07T07:41:19.910Z,18.5
2017-04-07T07:42:27.995Z,18.5
2017-04-07T07:43:36.078Z,18.5
2017-04-07T07:44:44.162Z,18.5
2017-04-07T07:45:52.246Z,18.5
2017-04-07T07:47:00.329Z,18.6
2017-04-07T07:48:08.412Z,18.5
2017-04-07T07:49:16.496Z,18.5
2017-04-07T07:50:24.582Z,18.6
2017-04-07T07:51:32.665Z,18.6
2017-04-07T07:52:40.745Z,18.6
2017-04-07T07:53:48.831Z,18.5
2017-04-07T07:54:57.002Z,18.5
2017-04-07T07:56:04.999Z,18.6
2017-04-07T07:57:13.080Z,18.6
2017-04-07T07:58:21.167Z,18.6
2017-04-07T07:59:29.258Z,18.5
2017-04-07T08:00:37.330Z,18.6
2017-04-07T08:01:45.419Z,18.5
2017-04-07T08:02:53.923Z,18.6
2017-04-07T08:04:02.036Z,18.5
2017-04-07T08:05:09.668Z,18.5
2017-04-07T08:06:18.114Z,18.6
2017-04-07T08:07:25.957Z,18.5
2017-04-07T08:08:34.090Z,18.6
2017-04-07T08:09:42.201Z,18.5
2017-04-07T08:10:50.315Z,18.6
2017-04-07T08:11:58.364Z,18.5
2017-04-07T08:13:06.711Z,18.6
2017-04-07T08:14:14.453Z,18.6
2017-04-07T08:15:22.708Z,18.7
2017-04-07T08:16:30.763Z,18.6
2017-04-07T08:17:38.872Z,18.7
2017-04-07T08:18:46.672Z,18.6
2017-04-07T08:19:54.757Z,18.7
2017-04-07T08:21:03.330Z,18.6
2017-04-07T08:22:12.441Z,18.7
2017-04-07T08:23:19.102Z,18.7
2017-04-07T08:24:27.091Z,18.6
2017-04-07T08:25:35.646Z,18.7
2017-04-07T08:26:43.377Z,18.7
2017-04-07T08:27:51.348Z,18.7
2017-04-07T08:28:59.429Z,18.7
2017-04-07T08:30:07.518Z,18.6
2017-04-07T08:31:15.603Z,18.6
2017-04-07T08:32:23.765Z,18.6
2017-04-07T08:33:32.082Z,18.7
2017-04-07T08:34:40.119Z,18.7
2017-04-07T08:35:48.101Z,18.7
2017-04-07T08:36:56.282Z,18.7
2017-04-07T08:38:04.549Z,18.7
2017-04-07T08:39:12.232Z,18.7
2017-04-07T08:40:20.824Z,18.7
2017-04-07T08:41:28.529Z,18.7
2017-04-07T08:42:36.622Z,18.7
2017-04-07T08:43:44.544Z,18.7
2017-04-07T08:44:52.624Z,18.8
2017-04-07T08:46:00.708Z,18.7
2017-04-07T08:47:08.853Z,18.7
2017-04-07T08:48:16.947Z,18.7
2017-04-07T08:49:25.222Z,18.8
2017-04-07T08:50:33.406Z,18.7
2017-04-07T08:51:41.141Z,18.8
2017-04-07T08:52:49.233Z,18.7
2017-04-07T08:53:57.320Z,18.7
2017-04-07T08:55:05.402Z,18.7
2017-04-07T08:56:13.481Z,18.8
2017-04-07T08:57:21.568Z,18.7
2017-04-07T08:58:29.653Z,18.7
2017-04-07T08:59:37.732Z,18.8
2017-04-07T09:00:46.054Z,18.7
2017-04-07T09:01:53.907Z,18.7
2017-04-07T09:03:02.433Z,18.7
2017-04-07T09:04:10.377Z,18.7
2017-04-07T09:05:18.255Z,18.8
2017-04-07T09:06:26.417Z,18.8
2017-04-07T09:07:34.325Z,18.7
2017-04-07T09:08:42.694Z,18.7
2017-04-07T09:09:50.503Z,18.7
2017-04-07T09:10:58.808Z,18.8
2017-04-07T09:12:07.037Z,18.8
2017-04-07T09:13:15.375Z,18.8
2017-04-07T09:14:23.045Z,18.7
2017-04-07T09:15:31.592Z,18.7
2017-04-07T09:16:39.319Z,18.7
2017-04-07T09:17:47.281Z,18.8
2017-04-07T09:18:55.196Z,18.8
2017-04-07T09:20:03.288Z,18.8
2017-04-07T09:21:11.618Z,18.8
2017-04-07T09:22:19.470Z,18.7
2017-04-07T09:23:27.805Z,18.8
2017-04-07T09:24:35.624Z,18.7
2017-04-07T09:25:43.708Z,18.8
2017-04-07T09:26:51.788Z,18.8
2017-04-07T09:28:00.499Z,18.8
2017-04-07T09:29:07.962Z,18.8
2017-04-07T09:30:16.046Z,18.8
2017-04-07T09:31:24.541Z,18.7
2017-04-07T09:32:32.212Z,18.9
2017-04-07T09:33:40.295Z,18.8
2017-04-07T09:34:48.377Z,18.8
2017-04-07T09:35:56.464Z,18.8
2017-04-07T09:37:04.550Z,18.8
2017-04-07T09:38:12.631Z,18.8
2017-04-07T09:39:20.721Z,18.8
2017-04-07T09:40:28.806Z,18.8
2017-04-07T09:41:36.891Z,18.9
2017-04-07T09:42:44.973Z,18.8
2017-04-07T09:43:53.062Z,18.9
2017-04-07T09:45:01.399Z,18.8
2017-04-07T09:46:09.225Z,18.9
2017-04-07T09:47:17.308Z,19.0
2017-04-07T09:48:25.403Z,18.9
2017-04-07T09:49:33.483Z,18.9
2017-04-07T09:50:41.567Z,19.0
2017-04-07T09:51:49.653Z,18.9
2017-04-07T09:52:57.744Z,18.9
2017-04-07T09:54:05.821Z,18.9
2017-04-07T09:55:13.902Z,18.9
2017-04-07T09:56:21.992Z,18.9
2017-04-07T09:57:30.072Z,19.0
2017-04-07T09:58:38.154Z,18.9
2017-04-07T09:59:46.243Z,18.9
2017-04-07T10:00:54.329Z,19.0
2017-04-07T10:02:02.408Z,18.9
2017-04-07T10:03:10.492Z,18.9
2017-04-07T10:04:18.580Z,19.0
2017-04-07T10:05:26.666Z,19.0
2017-04-07T10:06:34.747Z,18.9
2017-04-07T10:07:42.836Z,19.1
2017-04-07T10:08:50.921Z,19.1
2017-04-07T10:09:59.182Z,18.9
2017-04-07T10:11:07.095Z,18.9
2017-04-07T10:12:15.180Z,18.9
2017-04-07T10:13:23.263Z,18.9
2017-04-07T10:14:31.348Z,19.1
2017-04-07T10:15:39.439Z,19.0
2017-04-07T10:16:47.521Z,19.1
2017-04-07T10:17:55.662Z,19.1
2017-04-07T10:19:04.223Z,19.0
2017-04-07T10:20:11.778Z,19.1
2017-04-07T10:21:19.864Z,19.0
2017-04-07T10:22:27.953Z,19.1
2017-04-07T10:23:36.053Z,19.1
2017-04-07T10:24:44.124Z,19.1
2017-04-07T10:25:52.203Z,19.1
2017-04-07T10:27:00.289Z,19.1
2017-04-07T10:28:08.502Z,19.1
2017-04-07T10:29:16.459Z,19.1
2017-04-07T10:30:24.541Z,19.1
2017-04-07T10:31:32.629Z,19.1
2017-04-07T10:32:40.716Z,19.1
2017-04-07T10:33:48.798Z,19.1
2017-04-07T10:34:56.884Z,19.1
2017-04-07T10:36:04.970Z,19.1
2017-04-07T10:37:13.051Z,19.1
2017-04-07T10:38:21.134Z,19.1
2017-04-07T10:39:29.220Z,19.2
2017-04-07T10:40:37.305Z,19.1
2017-04-07T10:41:45.385Z,19.1
2017-04-07T10:42:53.475Z,19.1
2017-04-07T10:44:01.559Z,19.1
2017-04-07T10:45:09.645Z,19.1
2017-04-07T10:46:17.727Z,19.1
2017-04-07T10:47:25.821Z,19.1
2017-04-07T10:48:33.902Z,19.1
2017-04-07T10:49:41.983Z,19.2
2017-04-07T10:50:50.070Z,19.1
2017-04-07T10:51:58.154Z,19.1
2017-04-07T10:53:06.239Z,19.2
2017-04-07T10:54:14.331Z,19.2
2017-04-07T10:55:22.430Z,19.2
2017-04-07T10:56:30.517Z,19.2
2017-04-07T10:57:38.606Z,19.2
2017-04-07T10:58:46.693Z,19.2
2017-04-07T10:59:54.791Z,19.2
2017-04-07T11:01:02.878Z,19.2
2017-04-07T11:02:10.965Z,19.2
2017-04-07T11:03:19.064Z,19.3
2017-04-07T11:04:27.150Z,19.2
2017-04-07T11:05:35.233Z,19.2
2017-04-07T11:06:43.327Z,19.2
2017-04-07T11:07:51.409Z,19.2
2017-04-07T11:08:59.500Z,19.2
2017-04-07T11:10:08.954Z,19.2
2017-04-07T11:11:15.673Z,19.2
2017-04-07T11:12:23.764Z,19.2
2017-04-07T11:13:31.843Z,19.2
2017-04-07T11:14:39.935Z,19.2
2017-04-07T11:15:48.022Z,19.2
2017-04-07T11:16:56.101Z,19.2
2017-04-07T11:18:04.197Z,19.3
2017-04-07T11:19:12.411Z,19.3
2017-04-07T11:20:20.359Z,19.2
2017-04-07T11:21:28.509Z,19.2
2017-04-07T11:22:36.530Z,19.2
2017-04-07T11:23:44.615Z,19.2
2017-04-07T11:24:52.695Z,19.2
2017-04-07T11:26:00.787Z,19.2
2017-04-07T11:27:08.881Z,19.2
2017-04-07T11:28:16.966Z,19.2
2017-04-07T11:29:25.049Z,19.3
2017-04-07T11:30:33.138Z,19.2
2017-04-07T11:31:41.227Z,19.2
2017-04-07T11:32:49.311Z,19.2
2017-04-07T11:33:57.404Z,19.3
2017-04-07T11:35:05.509Z,19.3
2017-04-07T11:36:13.573Z,19.2
2017-04-07T11:37:21.652Z,19.2
2017-04-07T11:38:29.743Z,19.2
2017-04-07T11:39:37.826Z,19.2
2017-04-07T11:40:45.910Z,19.2
2017-04-07T11:41:53.992Z,19.2
2017-04-07T11:43:02.105Z,19.2
2017-04-07T11:44:10.165Z,19.2
2017-04-07T11:45:18.247Z,19.2
2017-04-07T11:46:26.335Z,19.3
2017-04-07T11:47:34.423Z,19.3
2017-04-07T11:48:42.545Z,19.3
2017-04-07T11:49:50.961Z,19.3
2017-04-07T11:50:58.681Z,19.3
2017-04-07T11:52:07.024Z,19.3
2017-04-07T11:53:14.850Z,19.2
2017-04-07T11:54:22.937Z,19.3
2017-04-07T11:55:31.025Z,19.2
2017-04-07T11:56:39.106Z,19.3
2017-04-07T11:57:47.195Z,19.2
2017-04-07T11:58:55.323Z,19.3
2017-04-07T12:00:03.863Z,19.3
2017-04-07T12:01:11.920Z,19.2
2017-04-07T12:02:19.539Z,19.3
2017-04-07T12:03:28.296Z,19.2
2017-04-07T12:04:36.194Z,19.3
2017-04-07T12:05:43.807Z,19.2
2017-04-07T12:06:51.868Z,19.3
2017-04-07T12:07:59.954Z,19.3
2017-04-07T12:09:08.040Z,19.3
2017-04-07T12:10:16.123Z,19.3
2017-04-07T12:11:24.208Z,19.2
2017-04-07T12:12:32.287Z,19.2
2017-04-07T12:13:40.374Z,19.2
2017-04-07T12:14:48.459Z,19.2
2017-04-07T12:15:56.538Z,19.2
2017-04-07T12:17:04.626Z,19.2
2017-04-07T12:18:12.715Z,19.2
2017-04-07T12:19:20.802Z,19.2
2017-04-07T12:20:28.883Z,19.2
2017-04-07T12:21:36.971Z,19.2
2017-04-07T12:22:45.065Z,19.2
2017-04-07T12:23:53.145Z,19.2
2017-04-07T12:25:01.237Z,19.2
2017-04-07T12:26:09.324Z,19.2
2017-04-07T12:27:17.409Z,19.1
2017-04-07T12:28:25.492Z,19.2
2017-04-07T12:29:33.584Z,19.1
2017-04-07T12:30:41.664Z,19.1
2017-04-07T12:31:49.750Z,19.1
2017-04-07T12:32:57.834Z,19.2
2017-04-07T12:34:05.920Z,19.2
2017-04-07T12:35:14.003Z,19.2
2017-04-07T12:36:22.085Z,19.2
2017-04-07T12:37:30.171Z,19.1
2017-04-07T12:38:38.260Z,19.1
2017-04-07T12:39:46.338Z,19.1
2017-04-07T12:40:54.428Z,19.1
2017-04-07T12:42:02.513Z,19.1
2017-04-07T12:43:10.596Z,19.1
2017-04-07T12:44:18.677Z,19.1
2017-04-07T12:45:26.765Z,19.1
2017-04-07T12:46:34.851Z,19.1
2017-04-07T12:47:42.955Z,19.1
2017-04-07T12:48:51.023Z,19.0
2017-04-07T12:49:59.101Z,19.1
2017-04-07T12:51:07.191Z,19.1
2017-04-07T12:52:15.273Z,19.1
2017-04-07T12:53:23.360Z,19.1
2017-04-07T12:54:31.451Z,19.0
2017-04-07T12:55:39.535Z,19.1
2017-04-07T12:56:47.619Z,19.1
2017-04-07T12:57:55.705Z,19.1
2017-04-07T12:59:03.790Z,19.1
2017-04-07T13:00:11.867Z,19.1
2017-04-07T13:01:19.961Z,19.1
2017-04-07T13:02:28.042Z,19.1
2017-04-07T13:03:36.127Z,19.1
2017-04-07T13:04:44.213Z,19.1
2017-04-07T13:05:52.297Z,19.0
2017-04-07T13:07:00.383Z,19.1
2017-04-07T13:08:08.497Z,19.0
2017-04-07T13:09:16.556Z,19.0
2017-04-07T13:10:24.637Z,19.1
2017-04-07T13:11:32.720Z,19.1
2017-04-07T13:12:40.808Z,19.1
2017-04-07T13:13:48.889Z,19.1
2017-04-07T13:14:56.972Z,19.1
2017-04-07T13:16:05.057Z,19.1
2017-04-07T13:17:13.150Z,19.0
2017-04-07T13:18:21.234Z,19.1
2017-04-07T13:19:29.321Z,19.1
2017-04-07T13:20:37.404Z,19.0
2017-04-07T13:21:45.488Z,19.1
2017-04-07T13:22:53.573Z,18.9
2017-04-07T13:24:01.654Z,19.0
2017-04-07T13:25:09.743Z,19.0
2017-04-07T13:26:17.825Z,19.0
2017-04-07T13:27:25.907Z,19.0
2017-04-07T13:28:34.006Z,19.1
2017-04-07T13:29:42.094Z,19.0
2017-04-07T13:30:50.173Z,19.1
2017-04-07T13:31:58.261Z,19.1
2017-04-07T13:33:06.344Z,19.1
2017-04-07T13:34:14.450Z,19.0
2017-04-07T13:35:22.509Z,19.1
2017-04-07T13:36:30.595Z,19.0
2017-04-07T13:37:38.682Z,19.0
2017-04-07T13:38:46.769Z,19.1
2017-04-07T13:39:54.860Z,19.1
2017-04-07T13:41:02.945Z,19.1
2017-04-07T13:42:11.032Z,19.1
2017-04-07T13:43:19.129Z,19.1
2017-04-07T13:44:27.198Z,19.1
2017-04-07T13:45:35.282Z,19.1
2017-04-07T13:46:43.363Z,19.1
2017-04-07T13:47:51.452Z,19.1
2017-04-07T13:48:59.536Z,19.1
2017-04-07T13:50:07.615Z,19.1
2017-04-07T13:51:15.701Z,19.1
2017-04-07T13:52:23.786Z,19.1
2017-04-07T13:53:31.873Z,19.1
2017-04-07T13:54:39.957Z,19.1
2017-04-07T13:55:48.047Z,19.1
2017-04-07T13:56:56.131Z,19.0
2017-04-07T13:58:04.217Z,19.1
2017-04-07T13:59:12.294Z,19.1
2017-04-07T14:00:20.383Z,19.1
2017-04-07T14:01:28.487Z,19.1
2017-04-07T14:02:36.547Z,19.1
2017-04-07T14:03:44.633Z,19.0
2017-04-07T14:04:52.718Z,19.1
2017-04-07T14:06:00.805Z,19.1
2017-04-07T14:07:08.894Z,19.1
2017-04-07T14:08:16.973Z,19.0
2017-04-07T14:09:25.063Z,19.1
2017-04-07T14:10:33.143Z,19.1
2017-04-07T14:11:41.229Z,19.1
2017-04-07T14:12:49.313Z,19.1
2017-04-07T14:13:57.393Z,19.1
2017-04-07T14:15:05.481Z,19.1
2017-04-07T14:16:13.565Z,19.1
2017-04-07T14:17:21.652Z,19.1
2017-04-07T14:18:29.735Z,19.1
2017-04-07T14:19:37.821Z,19.0
2017-04-07T14:20:45.905Z,19.1
2017-04-07T14:21:53.988Z,19.1
2017-04-07T14:23:02.068Z,19.1
2017-04-07T14:24:10.156Z,19.1
2017-04-07T14:25:18.237Z,19.1
2017-04-07T14:26:26.321Z,19.1
2017-04-07T14:27:34.406Z,19.1
2017-04-07T14:28:42.493Z,19.1
2017-04-07T14:29:50.583Z,19.1
2017-04-07T14:30:58.659Z,19.1
2017-04-07T14:32:06.747Z,19.1
2017-04-07T14:33:14.832Z,19.1
2017-04-07T14:34:22.913Z,19.2
2017-04-07T14:35:30.999Z,19.1
2017-04-07T14:36:39.086Z,19.1
2017-04-07T14:37:47.202Z,19.1
2017-04-07T14:38:55.255Z,19.1
2017-04-07T14:40:03.336Z,19.2
2017-04-07T14:41:11.425Z,19.1
2017-04-07T14:42:19.506Z,19.1
2017-04-07T14:43:27.595Z,19.1
2017-04-07T14:44:35.683Z,19.1
2017-04-07T14:45:43.768Z,19.1
2017-04-07T14:46:51.850Z,19.1
2017-04-07T14:47:59.935Z,19.2
2017-04-07T14:49:08.020Z,19.2
2017-04-07T14:50:16.108Z,19.1
2017-04-07T14:51:24.204Z,19.1
2017-04-07T14:52:32.282Z,19.1
2017-04-07T14:53:40.371Z,19.2
2017-04-07T14:54:48.542Z,19.1
2017-04-07T14:55:56.533Z,19.2
2017-04-07T14:57:04.615Z,19.1
2017-04-07T14:58:12.703Z,19.2
2017-04-07T14:59:20.791Z,19.2
2017-04-07T15:00:28.877Z,19.1
2017-04-07T15:01:36.955Z,19.2
2017-04-07T15:02:45.044Z,19.1
2017-04-07T15:03:53.127Z,19.1
2017-04-07T15:05:01.209Z,19.1
2017-04-07T15:06:09.304Z,19.2